Time;durP1;ratioP1;P1;durP2;ratioP2;P2;SDS_P1;SDS_P2;PMS_P1;PMS_P2;Temp;Humidity;BMP_temperature;BMP_pressure;BME280_temperature;BME280_humidity;BME280_pressure;Samples;Min_cycle;Max_cycle;Signal;HPM_P1;HPM_P2
2024/04/22 00:01:06;;;;;;;4.85;1.90;;;5.80;99.90;;;;;;5474565;26;20007;-79
2024/04/22 00:03:32;;;;;;;4.28;1.80;;;5.90;99.90;;;;;;5481702;26;20006;-80
2024/04/22 00:05:58;;;;;;;4.95;1.80;;;5.80;99.90;;;;;;5485683;26;20017;-80
2024/04/22 00:08:23;;;;;;;2.80;2.00;;;6.00;99.90;;;;;;5455582;26;20355;-81
2024/04/22 00:11:00;;;;;;;2.90;1.80;;;5.80;99.90;;;;;;5470657;26;20455;-82
2024/04/22 00:13:26;;;;;;;2.88;1.70;;;5.80;99.90;;;;;;5484943;26;20006;-80
2024/04/22 00:15:51;;;;;;;2.97;1.70;;;5.80;99.90;;;;;;5483443;26;20366;-83
2024/04/22 00:18:17;;;;;;;3.75;1.80;;;5.80;99.90;;;;;;5472286;26;20006;-79
2024/04/22 00:20:43;;;;;;;4.88;2.00;;;5.80;99.90;;;;;;5464134;26;20007;-79
2024/04/22 00:23:09;;;;;;;6.25;2.00;;;5.80;99.90;;;;;;5473130;26;20003;-79
2024/04/22 00:25:34;;;;;;;4.32;2.10;;;5.80;99.90;;;;;;5474339;26;20311;-80
2024/04/22 00:28:00;;;;;;;4.88;2.30;;;5.80;99.90;;;;;;5463101;26;20006;-79
2024/04/22 00:30:25;;;;;;;3.53;2.05;;;5.80;99.90;;;;;;5485231;26;20569;-83
2024/04/22 00:32:51;;;;;;;5.70;3.13;;;5.80;99.90;;;;;;5485310;26;20006;-79
2024/04/22 00:35:17;;;;;;;6.13;2.15;;;5.80;99.90;;;;;;5484094;26;20006;-80
2024/04/22 00:37:42;;;;;;;3.88;2.13;;;5.80;99.90;;;;;;5472689;26;20014;-80
2024/04/22 00:40:09;;;;;;;3.70;2.03;;;5.80;99.90;;;;;;5461620;26;20043;-79
2024/04/22 00:42:35;;;;;;;3.97;2.17;;;5.80;99.90;;;;;;5482363;26;20002;-81
2024/04/22 00:45:01;;;;;;;5.50;2.42;;;5.80;99.90;;;;;;5460897;26;20021;-79
2024/04/22 00:47:26;;;;;;;5.78;2.47;;;5.80;99.90;;;;;;5463838;26;20360;-80
2024/04/22 00:49:53;;;;;;;7.55;2.30;;;5.80;99.90;;;;;;5475599;26;20006;-82
2024/04/22 00:52:19;;;;;;;6.38;2.30;;;5.80;99.90;;;;;;5468956;26;20006;-80
2024/04/22 00:54:46;;;;;;;6.53;1.98;;;5.70;99.90;;;;;;5469883;26;20005;-82
2024/04/22 00:57:13;;;;;;;3.38;1.90;;;5.80;99.90;;;;;;5485052;26;20002;-79
2024/04/22 00:59:39;;;;;;;2.28;1.70;;;5.70;99.90;;;;;;5474642;26;20006;-80
2024/04/22 01:02:05;;;;;;;4.95;2.03;;;5.70;99.90;;;;;;5459562;26;20478;-80
2024/04/22 01:04:33;;;;;;;3.95;2.13;;;5.70;99.90;;;;;;5479205;26;20353;-82
2024/04/22 01:06:59;;;;;;;3.45;1.85;;;5.70;99.90;;;;;;5477164;26;20470;-83
2024/04/22 01:09:27;;;;;;;3.92;2.03;;;5.70;99.90;;;;;;5480119;26;20420;-80
2024/04/22 01:11:53;;;;;;;6.93;2.30;;;5.70;99.90;;;;;;5456956;26;20019;-83
2024/04/22 01:14:19;;;;;;;4.45;2.00;;;5.60;99.90;;;;;;5448513;26;20021;-83
2024/04/22 01:16:54;;;;;;;7.95;2.08;;;5.60;99.90;;;;;;5482341;26;20026;-79
2024/04/22 01:19:20;;;;;;;3.88;1.83;;;5.60;99.90;;;;;;5464640;26;20006;-79
2024/04/22 01:21:46;;;;;;;3.03;1.88;;;5.60;99.90;;;;;;5478301;26;20006;-81
2024/04/22 01:24:13;;;;;;;4.65;2.08;;;5.60;99.90;;;;;;5463172;26;20007;-83
2024/04/22 01:26:40;;;;;;;4.18;1.98;;;5.60;99.90;;;;;;5482364;26;20006;-79
2024/04/22 01:29:06;;;;;;;5.53;2.10;;;5.60;99.90;;;;;;5484536;26;20455;-79
2024/04/22 01:31:33;;;;;;;4.68;2.45;;;5.60;99.90;;;;;;5482698;26;20003;-82
2024/04/22 01:33:58;;;;;;;4.10;2.17;;;5.60;99.90;;;;;;5484419;26;20006;-79
2024/04/22 01:36:24;;;;;;;5.28;2.72;;;5.60;99.90;;;;;;5476903;26;20006;-79
2024/04/22 01:38:50;;;;;;;4.15;2.40;;;5.60;99.90;;;;;;5450822;26;20013;-82
2024/04/22 01:41:17;;;;;;;6.18;2.42;;;5.60;99.90;;;;;;5461572;26;20030;-79
2024/04/22 01:43:42;;;;;;;4.03;2.17;;;5.60;99.90;;;;;;5449427;26;20018;-80
2024/04/22 01:46:08;;;;;;;5.00;2.70;;;5.50;99.90;;;;;;5468819;26;20013;-79
2024/04/22 01:48:34;;;;;;;6.22;2.40;;;5.50;99.90;;;;;;5488466;26;20006;-83
2024/04/22 01:51:00;;;;;;;5.05;2.78;;;5.50;99.90;;;;;;5487981;26;20021;-79
2024/04/22 01:53:25;;;;;;;4.55;2.55;;;5.50;99.90;;;;;;5469033;26;20018;-79
2024/04/22 01:55:56;;;;;;;6.68;3.22;;;5.50;99.90;;;;;;5466610;26;20030;-79
2024/04/22 01:58:21;;;;;;;4.95;2.80;;;5.50;99.90;;;;;;5480676;26;20441;-80
2024/04/22 02:00:47;;;;;;;5.18;2.58;;;5.50;99.90;;;;;;5481675;26;20292;-80
2024/04/22 02:03:13;;;;;;;4.88;2.72;;;5.50;99.90;;;;;;5466229;26;20355;-79
2024/04/22 02:05:40;;;;;;;5.43;2.40;;;5.50;99.90;;;;;;5470163;26;20006;-82
2024/04/22 02:08:08;;;;;;;4.63;2.60;;;5.50;99.90;;;;;;5487883;26;20401;-80
2024/04/22 02:10:33;;;;;;;6.47;2.95;;;5.50;99.90;;;;;;5487477;26;20020;-82
2024/04/22 02:13:02;;;;;;;4.82;2.83;;;5.50;99.90;;;;;;5487545;26;20020;-80
2024/04/22 02:15:29;;;;;;;4.25;2.60;;;5.40;99.90;;;;;;5487444;26;20017;-79
2024/04/22 02:17:55;;;;;;;5.43;2.60;;;5.40;99.90;;;;;;5464654;26;20006;-83
2024/04/22 02:20:21;;;;;;;5.78;2.55;;;5.40;99.90;;;;;;5476012;26;20007;-81
2024/04/22 02:22:47;;;;;;;5.38;2.70;;;5.40;99.90;;;;;;5487405;26;20006;-83
2024/04/22 02:25:12;;;;;;;5.28;2.50;;;5.40;99.90;;;;;;5481607;26;20017;-79
2024/04/22 02:27:38;;;;;;;5.95;2.92;;;5.30;99.90;;;;;;5470620;26;20002;-79
2024/04/22 02:30:10;;;;;;;7.07;2.50;;;5.50;99.90;;;;;;5470350;26;20391;-79
2024/04/22 02:32:36;;;;;;;4.30;2.20;;;5.30;99.90;;;;;;5466473;26;20047;-82
2024/04/22 02:35:02;;;;;;;5.38;2.55;;;5.30;99.90;;;;;;5451269;26;20007;-81
2024/04/22 02:37:27;;;;;;;5.07;2.10;;;5.20;99.90;;;;;;5482331;26;20006;-81
2024/04/22 02:39:53;;;;;;;4.20;2.05;;;5.30;99.90;;;;;;5467975;26;20006;-83
2024/04/22 02:42:20;;;;;;;4.32;2.30;;;5.10;99.90;;;;;;5487092;26;20042;-79
2024/04/22 02:44:45;;;;;;;4.75;2.22;;;5.10;99.90;;;;;;5472654;26;20006;-83
2024/04/22 02:47:11;;;;;;;4.25;2.72;;;5.00;99.90;;;;;;5486996;26;20021;-79
2024/04/22 02:49:37;;;;;;;6.07;2.45;;;5.00;99.90;;;;;;5483673;26;20020;-80
2024/04/22 02:52:03;;;;;;;9.65;2.65;;;4.90;99.90;;;;;;5486752;26;20006;-79
2024/04/22 02:54:31;;;;;;;6.57;2.65;;;4.90;99.90;;;;;;5479126;26;20021;-79
2024/04/22 02:56:57;;;;;;;6.07;2.60;;;4.90;99.90;;;;;;5486929;26;20038;-79
2024/04/22 02:59:23;;;;;;;6.35;2.80;;;4.90;99.90;;;;;;5479155;26;20084;-79
2024/04/22 03:01:53;;;;;;;5.10;2.72;;;4.80;99.90;;;;;;5457815;26;20006;-79
2024/04/22 03:04:18;;;;;;;5.03;2.80;;;4.80;99.90;;;;;;5487229;26;20021;-79
2024/04/22 03:06:44;;;;;;;4.78;2.80;;;4.80;99.90;;;;;;5482147;26;20058;-81
2024/04/22 03:09:10;;;;;;;7.57;2.60;;;4.80;99.90;;;;;;5477303;26;20446;-81
2024/04/22 03:11:55;;;;;;;7.78;3.17;;;4.70;99.90;;;;;;5485414;26;20351;-79
2024/04/22 03:14:21;;;;;;;5.60;2.85;;;4.70;99.90;;;;;;5486636;26;20006;-80
2024/04/22 03:16:47;;;;;;;5.97;2.60;;;4.70;99.90;;;;;;5486487;26;20006;-81
2024/04/22 03:19:24;;;;;;;5.22;2.65;;;4.60;99.90;;;;;;5485772;26;20006;-86
2024/04/22 03:21:51;;;;;;;5.03;2.30;;;4.60;99.90;;;;;;5486854;26;20013;-79
2024/04/22 03:24:17;;;;;;;4.72;2.65;;;4.60;99.90;;;;;;5486779;26;20006;-82
2024/04/22 03:26:43;;;;;;;7.35;2.53;;;4.50;99.90;;;;;;5486556;26;20018;-81
2024/04/22 03:29:08;;;;;;;8.63;2.70;;;4.40;99.90;;;;;;5486606;26;20467;-79
2024/04/22 03:31:34;;;;;;;4.32;2.58;;;4.40;99.90;;;;;;5458475;26;20007;-79
2024/04/22 03:34:00;;;;;;;4.88;2.60;;;4.40;99.90;;;;;;5484904;26;20682;-79
2024/04/22 03:36:46;;;;;;;5.05;2.50;;;4.40;99.90;;;;;;5451982;26;20025;-81
2024/04/22 03:39:11;;;;;;;5.90;2.63;;;4.40;99.90;;;;;;5467404;26;20002;-79
2024/04/22 03:41:37;;;;;;;4.55;2.70;;;4.40;99.90;;;;;;5458475;26;20007;-81
2024/04/22 03:44:04;;;;;;;5.07;2.83;;;4.30;99.90;;;;;;5470921;26;20010;-79
2024/04/22 03:51:58;;;;;;;5.43;3.00;;;4.20;99.90;;;;;;5475490;26;20345;-81
2024/04/22 03:54:24;;;;;;;4.75;2.85;;;4.20;99.90;;;;;;5467827;26;20171;-79
2024/04/22 03:56:49;;;;;;;6.85;2.63;;;4.20;99.90;;;;;;5449793;26;20003;-82
2024/04/22 03:59:15;;;;;;;5.57;2.80;;;4.20;99.90;;;;;;5485380;26;20078;-79
2024/04/22 04:01:42;;;;;;;7.18;3.08;;;4.20;99.90;;;;;;5485845;26;20350;-83
2024/04/22 04:04:08;;;;;;;7.47;2.83;;;4.20;99.90;;;;;;5474761;26;20047;-82
2024/04/22 04:06:53;;;;;;;5.63;2.80;;;4.20;99.90;;;;;;5448313;26;20003;-81
2024/04/22 04:09:20;;;;;;;5.30;2.80;;;4.10;99.90;;;;;;5477801;26;20046;-80
2024/04/22 04:11:47;;;;;;;5.45;3.03;;;4.10;99.90;;;;;;5484843;26;20002;-79
2024/04/22 04:14:12;;;;;;;6.40;3.00;;;4.10;99.90;;;;;;5455413;26;20006;-79
2024/04/22 04:16:38;;;;;;;5.15;2.90;;;4.00;99.90;;;;;;5464921;26;20025;-79
2024/04/22 04:19:25;;;;;;;6.32;3.20;;;4.00;99.90;;;;;;5477964;26;20009;-83
2024/04/22 04:21:51;;;;;;;6.97;3.20;;;4.00;99.90;;;;;;5467023;26;20006;-79
2024/04/22 04:24:18;;;;;;;7.18;2.83;;;4.00;99.90;;;;;;5485537;26;20005;-79
2024/04/22 04:26:44;;;;;;;4.85;2.47;;;4.00;99.90;;;;;;5449344;26;20019;-79
2024/04/22 04:29:10;;;;;;;6.32;2.83;;;4.00;99.90;;;;;;5449479;26;20007;-81
2024/04/22 04:31:35;;;;;;;4.95;2.58;;;3.90;99.90;;;;;;5474895;26;20007;-79
2024/04/22 04:34:01;;;;;;;4.90;2.55;;;3.90;99.90;;;;;;5458119;26;20464;-79
2024/04/22 04:36:27;;;;;;;5.20;2.70;;;3.90;99.90;;;;;;5449270;26;20018;-81
2024/04/22 04:38:52;;;;;;;5.20;2.55;;;3.90;99.90;;;;;;5449182;26;20022;-82
2024/04/22 04:41:20;;;;;;;7.05;2.78;;;3.90;99.90;;;;;;5477733;26;20002;-81
2024/04/22 04:43:46;;;;;;;4.78;2.78;;;4.10;99.90;;;;;;5485394;26;20455;-81
2024/04/22 04:46:12;;;;;;;5.30;3.00;;;3.90;99.90;;;;;;5482115;26;20002;-79
2024/04/22 04:48:38;;;;;;;6.50;2.80;;;3.90;99.90;;;;;;5459743;26;20443;-80
2024/04/22 04:51:04;;;;;;;6.00;3.05;;;4.00;99.90;;;;;;5482258;26;20017;-79
2024/04/22 04:53:31;;;;;;;7.00;3.20;;;4.00;99.90;;;;;;5482270;26;20014;-79
2024/04/22 04:55:56;;;;;;;8.88;3.30;;;4.00;99.90;;;;;;5485312;26;20499;-79
2024/04/22 04:58:22;;;;;;;7.18;3.28;;;4.00;99.90;;;;;;5470134;26;20006;-79
2024/04/22 05:00:48;;;;;;;7.22;2.83;;;4.00;99.90;;;;;;5455601;26;20018;-79
2024/04/22 05:03:14;;;;;;;5.57;3.03;;;4.10;99.90;;;;;;5448705;26;20018;-83
2024/04/22 05:05:40;;;;;;;6.25;3.15;;;4.10;99.90;;;;;;5457120;26;20006;-79
2024/04/22 05:08:05;;;;;;;5.60;3.17;;;4.10;99.90;;;;;;5485077;26;20072;-82
2024/04/22 05:10:33;;;;;;;4.65;2.75;;;4.20;99.90;;;;;;5485104;26;20009;-79
2024/04/22 05:12:58;;;;;;;3.75;2.45;;;4.20;99.90;;;;;;5484971;26;20033;-79
2024/04/22 05:15:25;;;;;;;5.32;2.90;;;4.20;99.90;;;;;;5484916;26;20034;-79
2024/04/22 05:17:50;;;;;;;7.18;2.70;;;4.20;99.90;;;;;;5483150;26;20010;-79
2024/04/22 05:20:16;;;;;;;4.60;2.58;;;4.20;99.90;;;;;;5472203;26;20003;-82
2024/04/22 05:22:42;;;;;;;5.13;2.50;;;4.20;99.90;;;;;;5455134;26;20007;-83
2024/04/22 05:25:08;;;;;;;7.10;2.78;;;4.30;99.90;;;;;;5488126;26;20354;-80
2024/04/22 05:27:34;;;;;;;6.65;3.05;;;4.30;99.90;;;;;;5462325;26;20006;-84
2024/04/22 05:30:00;;;;;;;5.00;3.28;;;5.20;99.90;;;;;;5472448;26;19999;-83
2024/04/22 05:32:26;;;;;;;8.20;3.20;;;4.40;99.90;;;;;;5452375;26;20051;-80
2024/04/22 05:37:37;;;;;;;6.05;3.00;;;4.40;99.90;;;;;;5462969;26;20015;-81
2024/04/22 05:40:03;;;;;;;5.28;3.33;;;4.50;99.90;;;;;;5484404;26;20441;-84
2024/04/22 05:42:28;;;;;;;6.13;3.25;;;4.50;99.90;;;;;;5466411;26;20014;-84
2024/04/22 05:44:55;;;;;;;7.25;3.20;;;4.50;99.90;;;;;;5462669;26;20011;-86
2024/04/22 05:47:22;;;;;;;9.02;3.50;;;4.60;99.90;;;;;;5486242;26;20375;-79
2024/04/22 05:49:47;;;;;;;5.70;3.15;;;4.60;99.90;;;;;;5472333;26;20002;-79
2024/04/22 05:52:15;;;;;;;6.90;3.08;;;4.60;99.90;;;;;;5471837;26;20336;-80
2024/04/22 05:54:41;;;;;;;4.93;2.90;;;4.70;99.90;;;;;;5472663;26;20006;-80
2024/04/22 05:57:07;;;;;;;7.18;3.22;;;4.80;99.90;;;;;;5463604;26;20080;-81
2024/04/22 05:59:32;;;;;;;6.40;2.75;;;4.80;99.90;;;;;;5469784;26;20354;-79
2024/04/22 06:01:58;;;;;;;5.63;2.97;;;4.80;99.90;;;;;;5485463;26;20012;-78
2024/04/22 06:04:24;;;;;;;8.43;2.65;;;4.90;99.90;;;;;;5467662;26;20013;-79
2024/04/22 06:06:49;;;;;;;5.95;2.28;;;5.00;99.90;;;;;;5472680;26;20079;-82
2024/04/22 06:09:15;;;;;;;6.68;3.20;;;5.00;99.90;;;;;;5480977;26;20017;-82
2024/04/22 06:11:41;;;;;;;9.02;2.83;;;5.10;99.90;;;;;;5471199;26;20003;-78
2024/04/22 06:14:07;;;;;;;9.25;3.05;;;5.20;99.90;;;;;;5476691;26;20007;-79
2024/04/22 06:16:34;;;;;;;5.20;2.63;;;5.30;99.90;;;;;;5468394;26;20017;-79
2024/04/22 06:19:00;;;;;;;5.55;2.70;;;5.40;99.90;;;;;;5472418;26;20006;-83
2024/04/22 06:21:26;;;;;;;8.55;2.60;;;5.40;99.90;;;;;;5481941;26;20006;-80
2024/04/22 06:23:52;;;;;;;7.55;2.78;;;5.50;99.90;;;;;;5472709;26;20014;-79
2024/04/22 06:26:18;;;;;;;7.18;2.50;;;5.60;99.90;;;;;;5465429;26;20799;-79
2024/04/22 06:28:44;;;;;;;5.55;2.63;;;5.60;99.90;;;;;;5474795;26;20046;-82
2024/04/22 06:31:10;;;;;;;8.02;3.10;;;5.70;99.90;;;;;;5470422;26;20006;-83
2024/04/22 06:33:40;;;;;;;6.25;2.90;;;5.70;99.90;;;;;;5466040;26;20123;-82
2024/04/22 06:36:10;;;;;;;10.80;3.00;;;5.80;99.90;;;;;;5478534;26;20062;-83
2024/04/22 06:38:36;;;;;;;8.32;3.65;;;5.90;99.90;;;;;;5479073;26;20021;-80
2024/04/22 06:41:02;;;;;;;4.72;3.00;;;6.00;99.90;;;;;;5484506;26;20017;-83
2024/04/22 06:43:28;;;;;;;8.07;2.75;;;6.00;99.90;;;;;;5471407;26;20014;-84
2024/04/22 06:45:54;;;;;;;12.00;2.80;;;6.40;99.90;;;;;;5481543;26;20477;-79
2024/04/22 06:48:21;;;;;;;6.45;2.40;;;6.30;99.90;;;;;;5484900;26;20041;-81
2024/04/22 06:50:47;;;;;;;5.10;2.60;;;6.10;99.90;;;;;;5478481;26;20369;-82
2024/04/22 06:53:13;;;;;;;11.98;3.17;;;6.20;99.90;;;;;;5487197;26;20497;-80
2024/04/22 06:55:40;;;;;;;7.28;2.60;;;6.20;99.90;;;;;;5483892;26;20015;-81
2024/04/22 06:58:06;;;;;;;6.57;2.50;;;6.20;99.90;;;;;;5465940;26;20007;-80
2024/04/22 07:00:32;;;;;;;11.00;2.50;;;6.90;99.90;;;;;;5468989;26;20478;-79
2024/04/22 07:02:57;;;;;;;7.85;3.00;;;6.40;99.90;;;;;;5466894;26;20014;-79
2024/04/22 07:05:24;;;;;;;7.45;2.83;;;6.40;99.90;;;;;;5458878;26;20049;-79
2024/04/22 07:07:49;;;;;;;5.88;2.95;;;6.50;99.90;;;;;;5473047;26;20007;-80
2024/04/22 07:10:15;;;;;;;6.85;2.50;;;6.50;99.90;;;;;;5467278;26;20006;-83
2024/04/22 07:12:41;;;;;;;10.13;2.67;;;6.60;99.90;;;;;;5488178;26;20006;-80
2024/04/22 07:15:07;;;;;;;11.45;3.03;;;6.60;99.90;;;;;;5482933;26;20018;-82
2024/04/22 07:17:33;;;;;;;12.52;2.65;;;6.60;99.90;;;;;;5473093;26;20478;-79
2024/04/22 07:19:59;;;;;;;10.38;3.03;;;6.70;99.90;;;;;;5473556;26;20010;-81
2024/04/22 07:22:28;;;;;;;8.85;2.88;;;6.70;99.90;;;;;;5487202;26;20082;-79
2024/04/22 07:24:54;;;;;;;5.57;2.53;;;6.80;99.90;;;;;;5470869;26;20007;-80
2024/04/22 07:27:21;;;;;;;8.68;2.40;;;6.80;99.90;;;;;;5477078;26;20006;-79
2024/04/22 07:29:47;;;;;;;6.10;2.83;;;6.90;99.90;;;;;;5476420;26;20017;-79
2024/04/22 07:32:14;;;;;;;6.35;2.92;;;6.90;99.90;;;;;;5487854;26;20008;-80
2024/04/22 07:34:40;;;;;;;11.38;2.95;;;7.00;99.90;;;;;;5487067;26;20017;-79
2024/04/22 07:37:19;;;;;;;5.05;2.25;;;7.00;99.90;;;;;;5486670;26;20024;-83
2024/04/22 07:39:46;;;;;;;9.30;2.65;;;7.10;99.90;;;;;;5487358;26;20025;-80
2024/04/22 07:42:12;;;;;;;9.70;2.80;;;7.10;99.90;;;;;;5484554;26;20006;-84
2024/04/22 07:44:38;;;;;;;5.18;2.58;;;7.20;99.90;;;;;;5487692;26;20016;-86
2024/04/22 07:47:04;;;;;;;6.80;2.78;;;7.20;99.90;;;;;;5486193;26;20024;-79
2024/04/22 07:49:30;;;;;;;7.57;2.88;;;7.30;99.90;;;;;;5462758;26;20043;-84
2024/04/22 07:51:56;;;;;;;4.43;2.78;;;7.30;99.90;;;;;;5487439;26;20726;-80
2024/04/22 07:54:23;;;;;;;7.28;2.63;;;7.40;99.90;;;;;;5480291;26;20103;-80
2024/04/22 07:56:49;;;;;;;9.27;3.15;;;7.40;99.90;;;;;;5454941;26;20091;-85
2024/04/22 07:59:14;;;;;;;5.72;3.00;;;7.50;99.90;;;;;;5485319;26;20455;-80
2024/04/22 08:01:40;;;;;;;8.35;2.70;;;7.50;99.90;;;;;;5486684;26;19998;-78
2024/04/22 08:04:08;;;;;;;7.63;2.95;;;7.50;99.90;;;;;;5487238;26;20005;-79
2024/04/22 08:06:39;;;;;;;4.55;2.60;;;7.50;99.90;;;;;;5471342;26;20006;-79
2024/04/22 08:09:06;;;;;;;8.90;3.10;;;7.60;99.90;;;;;;5479998;26;20006;-80
2024/04/22 08:11:31;;;;;;;5.97;2.75;;;7.60;99.90;;;;;;5471222;26;20006;-80
2024/04/22 08:13:57;;;;;;;4.90;2.83;;;7.60;99.90;;;;;;5487568;26;20340;-83
2024/04/22 08:16:23;;;;;;;5.70;2.90;;;7.70;99.90;;;;;;5469938;26;20364;-79
2024/04/22 08:18:49;;;;;;;7.25;2.80;;;7.70;99.90;;;;;;5471963;26;20703;-79
2024/04/22 08:21:14;;;;;;;7.00;3.13;;;7.70;99.90;;;;;;5473612;26;20014;-81
2024/04/22 08:23:43;;;;;;;5.30;2.70;;;7.80;99.90;;;;;;5449503;26;20007;-78
2024/04/22 08:26:09;;;;;;;4.63;2.45;;;7.80;99.90;;;;;;5461553;26;20006;-79
2024/04/22 08:28:35;;;;;;;6.03;2.83;;;7.90;99.90;;;;;;5469465;26;20017;-80
2024/04/22 08:31:02;;;;;;;6.05;2.83;;;8.00;99.90;;;;;;5451151;26;20344;-79
2024/04/22 08:33:28;;;;;;;6.78;2.72;;;7.90;99.90;;;;;;5485805;26;20013;-82
2024/04/22 08:35:53;;;;;;;4.55;2.60;;;8.00;99.90;;;;;;5464538;26;20007;-83
2024/04/22 08:38:19;;;;;;;4.95;2.75;;;8.10;99.90;;;;;;5485352;26;20002;-80
2024/04/22 08:40:45;;;;;;;5.93;2.90;;;8.20;99.90;;;;;;5487070;26;20002;-79
2024/04/22 08:43:13;;;;;;;5.80;2.65;;;8.40;99.90;;;;;;5466051;26;20006;-81
2024/04/22 08:45:44;;;;;;;8.25;3.13;;;8.60;99.90;;;;;;5466644;26;20007;-80
2024/04/22 08:48:10;;;;;;;7.13;2.50;;;8.60;99.90;;;;;;5476280;26;20006;-85
2024/04/22 08:50:38;;;;;;;4.57;2.83;;;8.70;99.90;;;;;;5450617;26;20511;-81
2024/04/22 08:53:05;;;;;;;7.95;3.10;;;8.80;99.90;;;;;;5459367;26;20014;-79
2024/04/22 08:55:31;;;;;;;6.22;3.50;;;8.90;99.90;;;;;;5484379;26;20002;-80
2024/04/22 08:57:56;;;;;;;6.35;2.38;;;9.00;99.90;;;;;;5464000;26;20078;-79
2024/04/22 09:00:22;;;;;;;5.43;2.47;;;9.00;99.90;;;;;;5469344;26;20018;-84
2024/04/22 09:02:48;;;;;;;5.18;2.40;;;9.00;99.90;;;;;;5473077;26;20022;-79
2024/04/22 09:05:14;;;;;;;3.65;2.20;;;9.30;99.90;;;;;;5463957;26;20017;-79
2024/04/22 09:07:53;;;;;;;6.15;2.08;;;9.00;99.90;;;;;;5483895;26;20021;-80
2024/04/22 09:10:22;;;;;;;4.18;2.30;;;9.30;99.90;;;;;;5472939;26;20011;-79
2024/04/22 09:13:01;;;;;;;7.43;2.60;;;9.50;99.90;;;;;;5484909;26;20017;-79
2024/04/22 09:15:28;;;;;;;4.28;2.10;;;9.80;99.90;;;;;;5486076;26;20006;-81
2024/04/22 09:17:54;;;;;;;5.28;1.83;;;9.70;99.90;;;;;;5482256;26;20006;-80
2024/04/22 09:20:21;;;;;;;3.88;2.38;;;9.70;99.90;;;;;;5485295;26;20010;-80
2024/04/22 09:22:47;;;;;;;5.60;2.10;;;10.00;99.90;;;;;;5479879;26;20007;-85
2024/04/22 09:25:17;;;;;;;3.35;2.00;;;10.10;99.90;;;;;;5466185;26;20026;-84
2024/04/22 09:27:48;;;;;;;3.67;2.13;;;10.40;99.90;;;;;;5485054;26;20336;-79
2024/04/22 09:30:15;;;;;;;4.43;1.83;;;10.70;99.90;;;;;;5485340;26;20005;-83
2024/04/22 09:32:46;;;;;;;3.60;1.98;;;11.00;99.90;;;;;;5472403;26;20475;-79
2024/04/22 09:35:14;;;;;;;4.28;1.80;;;11.30;99.90;;;;;;5459650;26;20007;-80
2024/04/22 09:37:46;;;;;;;2.92;1.80;;;11.60;99.90;;;;;;5475173;26;20082;-80
2024/04/22 09:40:12;;;;;;;2.87;2.00;;;11.80;99.90;;;;;;5461514;26;20021;-83
2024/04/22 09:42:41;;;;;;;5.35;1.80;;;11.90;99.90;;;;;;5485620;26;20006;-82
2024/04/22 09:45:08;;;;;;;4.90;1.80;;;12.00;99.90;;;;;;5484765;26;20006;-82
2024/04/22 09:47:37;;;;;;;4.47;1.80;;;12.00;99.90;;;;;;5467842;26;20433;-83
2024/04/22 09:50:04;;;;;;;5.25;1.90;;;12.00;99.90;;;;;;5480078;26;20467;-79
2024/04/22 09:52:34;;;;;;;4.07;2.10;;;11.80;99.90;;;;;;5470038;26;20447;-79
2024/04/22 09:55:01;;;;;;;3.75;2.00;;;11.60;99.90;;;;;;5455373;26;20007;-83
2024/04/22 09:57:30;;;;;;;3.33;1.85;;;11.30;99.90;;;;;;5463507;26;20007;-85
2024/04/22 09:59:57;;;;;;;4.88;2.08;;;11.20;99.90;;;;;;5484148;26;20099;-79
2024/04/22 10:02:23;;;;;;;4.55;2.13;;;11.10;99.90;;;;;;5484145;26;19998;-79
2024/04/22 10:04:49;;;;;;;3.35;2.08;;;11.10;99.90;;;;;;5472470;26;20034;-80
2024/04/22 10:07:15;;;;;;;4.75;1.80;;;11.10;99.90;;;;;;5483659;26;20149;-80
2024/04/22 10:09:41;;;;;;;4.38;1.60;;;11.10;99.90;;;;;;5486165;26;20006;-80
2024/04/22 10:12:08;;;;;;;2.50;1.90;;;11.30;99.90;;;;;;5486135;26;20042;-79
2024/04/22 10:14:34;;;;;;;3.30;2.13;;;11.60;99.90;;;;;;5487489;26;20006;-79
2024/04/22 10:17:00;;;;;;;6.70;1.85;;;12.00;99.90;;;;;;5479345;26;20424;-82
2024/04/22 10:19:30;;;;;;;3.65;2.13;;;12.10;99.90;;;;;;5480767;26;20006;-79
2024/04/22 10:22:04;;;;;;;2.55;1.85;;;12.30;99.90;;;;;;5487415;26;20002;-82
2024/04/22 10:24:40;;;;;;;5.05;1.85;;;12.40;99.90;;;;;;5467470;26;20012;-83
2024/04/22 10:27:10;;;;;;;2.33;1.80;;;12.30;99.90;;;;;;5476260;26;20033;-79
2024/04/22 10:29:37;;;;;;;3.05;1.90;;;12.20;99.90;;;;;;5483815;26;20024;-80
2024/04/22 10:32:03;;;;;;;3.85;1.65;;;12.20;99.90;;;;;;5488236;26;20014;-80
2024/04/22 10:34:29;;;;;;;3.50;1.80;;;12.30;99.90;;;;;;5484745;26;20006;-79
2024/04/22 10:36:55;;;;;;;3.75;1.70;;;12.40;99.90;;;;;;5470335;26;20059;-80
2024/04/22 10:39:20;;;;;;;3.85;1.90;;;12.40;99.70;;;;;;5487356;26;20014;-80
2024/04/22 10:41:47;;;;;;;4.28;1.48;;;12.40;99.50;;;;;;5477527;26;20022;-79
2024/04/22 10:44:13;;;;;;;2.47;1.55;;;12.30;99.40;;;;;;5472083;26;20124;-81
2024/04/22 10:46:39;;;;;;;4.10;1.65;;;12.30;99.10;;;;;;5454067;26;20007;-80
2024/04/22 10:49:05;;;;;;;7.93;1.83;;;12.10;99.30;;;;;;5460138;26;20084;-81
2024/04/22 10:51:31;;;;;;;5.28;1.65;;;12.10;99.70;;;;;;5459106;26;20006;-81
2024/04/22 10:53:58;;;;;;;3.78;1.73;;;12.00;99.90;;;;;;5470202;26;20003;-80
2024/04/22 10:56:24;;;;;;;3.40;1.60;;;12.00;99.80;;;;;;5457903;26;20344;-81
2024/04/22 10:58:53;;;;;;;3.80;1.95;;;12.00;99.90;;;;;;5480092;26;20013;-80
2024/04/22 11:01:22;;;;;;;3.35;1.80;;;12.10;99.70;;;;;;5458683;26;20006;-79
2024/04/22 11:03:48;;;;;;;4.32;2.08;;;11.90;99.40;;;;;;5471061;26;20014;-81
2024/04/22 11:06:14;;;;;;;3.15;1.60;;;11.90;99.50;;;;;;5485529;26;20362;-80
2024/04/22 11:08:41;;;;;;;3.65;1.55;;;11.80;99.30;;;;;;5468665;26;20007;-83
2024/04/22 11:11:08;;;;;;;2.83;1.55;;;11.80;99.10;;;;;;5450594;26;20487;-79
2024/04/22 11:13:38;;;;;;;3.50;1.70;;;11.90;99.30;;;;;;5471275;26;20491;-82
2024/04/22 11:16:07;;;;;;;3.63;1.88;;;11.90;98.80;;;;;;5478368;26;20006;-80
2024/04/22 11:18:32;;;;;;;4.65;1.83;;;11.80;98.10;;;;;;5471850;26;20006;-84
2024/04/22 11:20:58;;;;;;;4.88;1.98;;;11.50;97.90;;;;;;5470687;26;20017;-84
2024/04/22 11:23:25;;;;;;;3.33;1.75;;;11.40;98.20;;;;;;5470157;26;20002;-81
2024/04/22 11:25:50;;;;;;;3.08;2.00;;;11.10;98.30;;;;;;5450862;26;20007;-83
2024/04/22 11:28:16;;;;;;;4.20;1.88;;;10.80;98.40;;;;;;5515592;26;20013;-79
2024/04/22 11:30:42;;;;;;;2.67;1.65;;;10.70;99.20;;;;;;5482466;26;20053;-79
2024/04/22 11:33:08;;;;;;;4.35;1.85;;;10.50;99.30;;;;;;5475365;26;20007;-80
2024/04/22 11:35:35;;;;;;;4.45;2.00;;;10.70;99.60;;;;;;5454722;26;20018;-80
2024/04/22 11:38:01;;;;;;;5.65;1.77;;;10.70;99.90;;;;;;5450146;26;20017;-81
2024/04/22 11:40:28;;;;;;;3.60;1.80;;;10.90;99.90;;;;;;5465473;26;20447;-82
2024/04/22 11:42:54;;;;;;;4.82;2.58;;;10.80;99.90;;;;;;5480680;26;20015;-80
2024/04/22 11:45:19;;;;;;;3.88;2.38;;;10.70;99.90;;;;;;5486218;26;20025;-79
2024/04/22 11:47:45;;;;;;;4.93;2.47;;;10.50;99.90;;;;;;5486007;26;20014;-82
2024/04/22 11:50:11;;;;;;;5.65;2.58;;;10.40;99.90;;;;;;5483578;26;20020;-79
2024/04/22 11:52:36;;;;;;;6.35;2.72;;;10.20;99.90;;;;;;5480989;26;20367;-79
2024/04/22 11:55:03;;;;;;;7.75;2.50;;;10.10;99.90;;;;;;5486252;26;20042;-81
2024/04/22 11:57:29;;;;;;;8.77;2.60;;;10.10;99.90;;;;;;5485373;26;20002;-79
2024/04/22 11:59:55;;;;;;;4.15;2.30;;;10.30;99.90;;;;;;5469675;26;20020;-79
2024/04/22 12:02:20;;;;;;;5.13;2.45;;;10.60;99.90;;;;;;5486296;26;20377;-80
2024/04/22 12:04:46;;;;;;;10.40;2.60;;;11.00;99.90;;;;;;5485813;26;20021;-80
2024/04/22 12:07:12;;;;;;;3.35;1.92;;;11.30;99.90;;;;;;5486021;26;20018;-80
2024/04/22 12:09:38;;;;;;;5.60;2.50;;;11.60;99.90;;;;;;5483766;26;20018;-80
2024/04/22 12:12:04;;;;;;;3.92;2.00;;;11.80;99.90;;;;;;5485903;26;20032;-84
2024/04/22 12:14:30;;;;;;;5.95;2.25;;;11.90;99.90;;;;;;5454767;26;20020;-82
2024/04/22 12:16:55;;;;;;;4.50;2.00;;;11.80;99.90;;;;;;5462089;26;20007;-79
2024/04/22 12:19:21;;;;;;;3.92;2.25;;;11.60;99.90;;;;;;5464894;26;20006;-79
2024/04/22 12:21:47;;;;;;;3.55;1.92;;;11.40;99.90;;;;;;5465377;26;20542;-81
2024/04/22 12:24:12;;;;;;;9.95;2.35;;;11.20;99.90;;;;;;5486005;26;20006;-80
2024/04/22 12:26:38;;;;;;;7.32;2.13;;;11.00;99.90;;;;;;5485706;26;20002;-83
2024/04/22 12:29:04;;;;;;;7.07;2.30;;;10.90;99.90;;;;;;5484204;26;20462;-83
2024/04/22 12:31:30;;;;;;;8.55;2.03;;;10.70;99.90;;;;;;5468593;26;20431;-80
2024/04/22 12:33:56;;;;;;;3.60;1.80;;;10.60;99.90;;;;;;5462273;26;20018;-80
2024/04/22 12:36:21;;;;;;;6.25;1.73;;;10.80;99.90;;;;;;5478251;26;20021;-80
2024/04/22 12:38:47;;;;;;;9.80;1.80;;;10.90;99.90;;;;;;5470288;26;20021;-80
2024/04/22 12:41:13;;;;;;;6.38;1.83;;;11.00;99.90;;;;;;5484557;26;20012;-83
2024/04/22 12:43:38;;;;;;;2.22;1.45;;;11.30;99.90;;;;;;5485545;26;20060;-79
2024/04/22 12:46:04;;;;;;;1.83;1.20;;;11.40;99.90;;;;;;5480803;26;20075;-79
2024/04/22 12:51:14;;;;;;;1.90;1.30;;;11.90;99.70;;;;;;5463515;26;20034;-79
2024/04/22 12:53:40;;;;;;;1.90;1.30;;;12.20;99.40;;;;;;5450644;26;20017;-79
2024/04/22 12:56:06;;;;;;;2.63;1.10;;;12.30;99.10;;;;;;5479363;26;20475;-79
2024/04/22 12:58:36;;;;;;;4.30;1.30;;;12.40;98.60;;;;;;5485046;26;20006;-81
2024/04/22 13:01:03;;;;;;;1.80;1.30;;;12.40;98.40;;;;;;5465356;26;20079;-79